createdAt,value
2023-04-10T00:01:52.347Z,99841.12
2023-04-10T00:04:40.127Z,99841.82
2023-04-10T00:07:27.813Z,99841.00
2023-04-10T00:10:15.242Z,99840.45
2023-04-10T00:13:04.039Z,99839.33
2023-04-10T00:15:51.524Z,99832.35
2023-04-10T00:18:38.704Z,99834.02
2023-04-10T00:21:27.272Z,99829.13
2023-04-10T00:24:14.995Z,99830.33
2023-04-10T00:27:02.786Z,99825.76
2023-04-10T00:29:50.357Z,99828.56
2023-04-10T00:32:37.987Z,99829.16
2023-04-10T00:35:25.385Z,99826.16
2023-04-10T00:38:13.185Z,99829.61
2023-04-10T00:41:01.816Z,99827.16
2023-04-10T00:43:49.555Z,99830.64
2023-04-10T00:46:37.655Z,99827.05
2023-04-10T00:49:25.530Z,99826.81
2023-04-10T00:52:13.272Z,99834.41
2023-04-10T00:55:01.667Z,99833.73
2023-04-10T00:57:48.993Z,99830.98
2023-04-10T01:00:36.250Z,99831.90
2023-04-10T01:03:43.478Z,99828.23
2023-04-10T01:06:46.785Z,99829.59
2023-04-10T01:10:15.071Z,99832.42
2023-04-10T01:13:16.275Z,99830.79
2023-04-10T01:16:30.651Z,99827.95
2023-04-10T01:19:53.731Z,99826.65
2023-04-10T01:22:40.883Z,99830.87
2023-04-10T01:25:31.254Z,99833.71
2023-04-10T01:28:18.522Z,99830.16
2023-04-10T01:31:10.629Z,99826.66
2023-04-10T01:34:03.696Z,99823.67
2023-04-10T01:40:03.835Z,99825.89
2023-04-10T01:42:54.699Z,99825.79
2023-04-10T01:45:48.713Z,99827.52
2023-04-10T01:48:36.565Z,99831.05
2023-04-10T01:51:24.520Z,99835.42
2023-04-10T01:54:12.620Z,99836.39
2023-04-10T01:57:01.706Z,99836.27
2023-04-10T01:59:50.549Z,99835.77
2023-04-10T02:02:38.054Z,99840.07
2023-04-10T02:05:33.637Z,99840.63
2023-04-10T02:08:35.944Z,99841.13
2023-04-10T02:11:33.179Z,99844.13
2023-04-10T02:14:21.836Z,99842.36
2023-04-10T02:17:13.439Z,99839.35
2023-04-10T02:20:02.236Z,99835.90
2023-04-10T02:22:50.068Z,99828.48
2023-04-10T02:25:37.325Z,99828.86
2023-04-10T02:28:25.470Z,99829.48
2023-04-10T02:31:12.789Z,99828.46
2023-04-10T02:34:00.493Z,99825.65
2023-04-10T02:36:47.922Z,99826.29
2023-04-10T02:39:36.463Z,99826.04
2023-04-10T02:42:23.882Z,99824.46
2023-04-10T02:45:11.709Z,99822.66
2023-04-10T02:48:02.360Z,99824.09
2023-04-10T02:50:55.949Z,99828.86
2023-04-10T02:53:43.675Z,99832.95
2023-04-10T02:56:34.179Z,99832.28
2023-04-10T02:59:22.819Z,99832.66
2023-04-10T03:02:10.995Z,99833.47
2023-04-10T03:05:01.429Z,99837.31
2023-04-10T03:07:48.924Z,99831.57
2023-04-10T03:10:36.728Z,99826.58
2023-04-10T03:13:24.069Z,99827.29
2023-04-10T03:16:11.333Z,99828.40
2023-04-10T03:18:59.218Z,99832.83
2023-04-10T03:21:46.802Z,99833.95
2023-04-10T03:24:34.115Z,99838.70
2023-04-10T03:27:22.308Z,99845.59
2023-04-10T03:30:10.294Z,99840.77
2023-04-10T03:33:00.824Z,99836.59
2023-04-10T03:35:48.186Z,99838.86
2023-04-10T03:38:35.755Z,99839.58
2023-04-10T03:41:25.409Z,99840.75
2023-04-10T03:44:13.036Z,99842.18
2023-04-10T03:47:00.660Z,99843.92
2023-04-10T03:49:48.676Z,99845.36
2023-04-10T03:52:36.386Z,99846.44
2023-04-10T03:55:25.761Z,99857.25
2023-04-10T03:58:13.124Z,99857.57
2023-04-10T04:01:00.355Z,99867.66
2023-04-10T04:03:55.365Z,99868.98
2023-04-10T04:07:00.985Z,99871.09
2023-04-10T04:10:26.669Z,99871.66
2023-04-10T04:13:23.788Z,99869.16
2023-04-10T04:16:16.410Z,99868.52
2023-04-10T04:19:12.017Z,99869.23
2023-04-10T04:22:05.410Z,99869.23
2023-04-10T04:25:11.206Z,99867.85
2023-04-10T04:28:29.572Z,99873.70
2023-04-10T04:31:31.957Z,99876.45
2023-04-10T04:34:43.565Z,99877.50
2023-04-10T04:37:57.861Z,99879.08
2023-04-10T04:41:05.743Z,99883.51
2023-04-10T04:44:21.621Z,99888.11
2023-04-10T04:47:19.200Z,99890.21
2023-04-10T04:50:35.972Z,99895.52
2023-04-10T04:53:36.610Z,99900.05
2023-04-10T04:56:42.360Z,99902.08
2023-04-10T04:59:44.508Z,99900.83
2023-04-10T05:03:00.930Z,99901.84
2023-04-10T05:06:07.286Z,99901.38
2023-04-10T05:09:08.159Z,99899.23
2023-04-10T05:12:22.941Z,99903.52
2023-04-10T05:15:29.012Z,99903.62
2023-04-10T05:18:32.420Z,99903.90
2023-04-10T05:21:32.526Z,99898.14
2023-04-10T05:24:42.327Z,99904.89
2023-04-10T05:27:35.771Z,99909.27
2023-04-10T05:30:24.091Z,99910.44
2023-04-10T05:33:29.291Z,99913.19
2023-04-10T05:36:31.552Z,99918.36
2023-04-10T05:39:24.820Z,99920.91
2023-04-10T05:42:12.839Z,99920.90
2023-04-10T05:45:10.584Z,99922.98
2023-04-10T05:48:16.593Z,99928.82
2023-04-10T05:51:24.181Z,99932.71
2023-04-10T05:54:30.431Z,99932.42
2023-04-10T05:57:47.818Z,99933.43
2023-04-10T06:00:55.522Z,99934.95
2023-04-10T06:04:01.867Z,99934.82
2023-04-10T06:06:50.218Z,99935.48
2023-04-10T06:09:40.428Z,99939.33
2023-04-10T06:12:29.986Z,99931.04
2023-04-10T06:15:18.005Z,99924.77
2023-04-10T06:18:05.498Z,99928.33
2023-04-10T06:20:52.716Z,99926.06
2023-04-10T06:23:40.215Z,99926.48
2023-04-10T06:26:27.692Z,99927.96
2023-04-10T06:29:15.957Z,99934.39
2023-04-10T06:32:04.325Z,99930.81
2023-04-10T06:34:55.254Z,99928.89
2023-04-10T06:37:43.314Z,99928.08
2023-04-10T06:40:33.332Z,99927.38
2023-04-10T06:43:20.826Z,99926.35
2023-04-10T06:46:09.225Z,99931.65
2023-04-10T06:48:56.847Z,99930.11
2023-04-10T06:51:45.515Z,99928.17
2023-04-10T06:54:32.819Z,99925.67
2023-04-10T06:57:20.537Z,99928.90
2023-04-10T07:00:08.900Z,99929.08
2023-04-10T07:02:56.256Z,99929.85
2023-04-10T07:05:43.722Z,99932.43
2023-04-10T07:08:31.232Z,99930.77
2023-04-10T07:11:18.617Z,99934.64
2023-04-10T07:14:06.027Z,99934.67
2023-04-10T07:16:53.628Z,99937.23
2023-04-10T07:19:40.973Z,99940.23
2023-04-10T07:22:28.277Z,99937.73
2023-04-10T07:25:16.057Z,99935.86
2023-04-10T07:28:03.537Z,99933.50
2023-04-10T07:30:51.096Z,99937.69
2023-04-10T07:33:38.941Z,99935.43
2023-04-10T07:36:26.431Z,99934.52
2023-04-10T07:39:14.258Z,99930.77
2023-04-10T07:42:01.542Z,99936.39
2023-04-10T07:44:48.779Z,99937.20
2023-04-10T07:47:36.121Z,99936.20
2023-04-10T07:50:23.475Z,99935.89
2023-04-10T07:53:10.821Z,99936.02
2023-04-10T07:55:58.373Z,99934.77
2023-04-10T07:58:46.202Z,99936.02
2023-04-10T08:01:33.913Z,99935.23
2023-04-10T08:04:21.595Z,99936.02
2023-04-10T08:07:09.288Z,99931.71
2023-04-10T08:09:56.691Z,99933.29
2023-04-10T08:12:43.956Z,99932.83
2023-04-10T08:15:31.352Z,99932.11
2023-04-10T08:18:18.490Z,99933.06
2023-04-10T08:21:06.213Z,99927.88
2023-04-10T08:23:55.057Z,99933.12
2023-04-10T08:26:42.286Z,99933.62
2023-04-10T08:29:29.614Z,99927.31
2023-04-10T08:32:17.146Z,99930.17
2023-04-10T08:35:05.102Z,99935.44
2023-04-10T08:38:07.724Z,99936.59
2023-04-10T08:41:00.341Z,99930.37
2023-04-10T08:43:49.144Z,99928.81
2023-04-10T08:46:41.519Z,99927.03
2023-04-10T08:49:44.208Z,99929.02
2023-04-10T08:52:35.421Z,99930.17
2023-04-10T08:55:23.385Z,99928.64
2023-04-10T08:58:13.117Z,99929.44
2023-04-10T09:01:01.283Z,99926.16
2023-04-10T09:03:48.795Z,99928.67
2023-04-10T09:06:36.219Z,99927.66
2023-04-10T09:09:23.346Z,99922.39
2023-04-10T09:12:13.375Z,99922.83
2023-04-10T09:15:00.766Z,99918.28
2023-04-10T09:17:55.008Z,99917.85
2023-04-10T09:20:42.422Z,99915.12
2023-04-10T09:23:29.676Z,99913.10
2023-04-10T09:26:26.110Z,99914.56
2023-04-10T09:29:16.227Z,99911.12
2023-04-10T09:32:03.766Z,99906.60
2023-04-10T09:34:53.395Z,99898.11
2023-04-10T09:37:41.887Z,99897.33
2023-04-10T09:40:29.294Z,99892.66
2023-04-10T09:43:25.216Z,99889.66
2023-04-10T09:46:26.065Z,99882.59
2023-04-10T09:49:13.368Z,99882.86
2023-04-10T09:52:17.842Z,99877.88
2023-04-10T09:55:09.131Z,99874.75
2023-04-10T09:57:58.056Z,99873.73
2023-04-10T10:00:47.827Z,99877.52
2023-04-10T10:03:35.480Z,99868.13
2023-04-10T10:06:22.994Z,99867.88
2023-04-10T10:09:12.183Z,99869.30
2023-04-10T10:12:00.634Z,99860.58
2023-04-10T10:15:00.169Z,99856.50
2023-04-10T10:18:00.075Z,99855.73
2023-04-10T10:20:49.719Z,99857.06
2023-04-10T10:23:38.182Z,99857.20
2023-04-10T10:26:25.635Z,99855.89
2023-04-10T10:29:15.171Z,99852.48
2023-04-10T10:32:03.897Z,99845.44
2023-04-10T10:34:52.519Z,99843.07
2023-04-10T10:37:40.643Z,99839.63
2023-04-10T10:40:46.853Z,99836.36
2023-04-10T10:43:52.308Z,99835.52
2023-04-10T10:47:21.358Z,99829.89
2023-04-10T10:50:09.113Z,99826.81
2023-04-10T10:52:57.092Z,99815.38
2023-04-10T10:55:44.795Z,99817.02
2023-04-10T10:58:52.490Z,99823.14
2023-04-10T11:02:16.279Z,99816.29
2023-04-10T11:05:03.800Z,99813.34
2023-04-10T11:08:00.882Z,99812.59
2023-04-10T11:11:04.974Z,99810.15
2023-04-10T11:13:52.295Z,99809.59
2023-04-10T11:16:41.126Z,99801.98
2023-04-10T11:19:28.667Z,99796.98
2023-04-10T11:22:16.130Z,99794.48
2023-04-10T11:25:09.644Z,99798.39
2023-04-10T11:27:56.958Z,99797.04
2023-04-10T11:30:44.274Z,99790.25
2023-04-10T11:33:31.716Z,99784.77
2023-04-10T11:36:19.792Z,99779.02
2023-04-10T11:39:09.082Z,99771.63
2023-04-10T11:41:57.132Z,99768.56
2023-04-10T11:44:44.802Z,99765.15
2023-04-10T11:47:32.785Z,99760.86
2023-04-10T11:50:20.874Z,99756.04
2023-04-10T11:53:21.348Z,99758.35
2023-04-10T11:56:21.470Z,99753.73
2023-04-10T11:59:10.289Z,99754.21
2023-04-10T12:02:14.153Z,99744.42
2023-04-10T12:05:02.535Z,99743.39
2023-04-10T12:07:50.081Z,99737.88
2023-04-10T12:10:46.945Z,99739.14
2023-04-10T12:16:39.544Z,99733.05
2023-04-10T12:19:27.271Z,99727.11
2023-04-10T12:22:15.340Z,99726.36
2023-04-10T12:25:02.768Z,99718.30
2023-04-10T12:27:51.075Z,99716.95
2023-04-10T12:30:46.330Z,99708.50
2023-04-10T12:33:33.809Z,99707.05
2023-04-10T12:36:21.971Z,99699.30
2023-04-10T12:39:22.761Z,99698.51
2023-04-10T12:42:14.665Z,99696.07
2023-04-10T12:45:03.023Z,99691.88
2023-04-10T12:47:53.661Z,99693.40
2023-04-10T12:50:49.178Z,99684.60
2023-04-10T12:53:44.282Z,99685.08
2023-04-10T12:56:47.066Z,99678.34
2023-04-10T12:59:34.562Z,99672.42
2023-04-10T13:02:23.100Z,99668.16
2023-04-10T13:05:10.794Z,99662.58
2023-04-10T13:07:58.662Z,99656.84
2023-04-10T13:10:46.082Z,99650.83
2023-04-10T13:13:33.623Z,99647.24
2023-04-10T13:16:20.790Z,99641.59
2023-04-10T13:19:08.625Z,99638.02
2023-04-10T13:21:55.764Z,99634.36
2023-04-10T13:24:43.966Z,99628.36
2023-04-10T13:27:31.072Z,99624.91
2023-04-10T13:30:18.647Z,99623.33
2023-04-10T13:33:05.983Z,99620.86
2023-04-10T13:35:53.705Z,99613.91
2023-04-10T13:38:42.681Z,99612.64
2023-04-10T13:41:30.711Z,99608.05
2023-04-10T13:44:17.964Z,99604.33
2023-04-10T13:47:05.657Z,99603.95
2023-04-10T13:49:52.874Z,99594.75
2023-04-10T13:52:40.436Z,99598.42
2023-04-10T13:55:27.584Z,99596.23
2023-04-10T13:58:15.555Z,99595.72
2023-04-10T14:01:02.797Z,99588.13
2023-04-10T14:03:50.587Z,99585.52
2023-04-10T14:06:38.059Z,99587.38
2023-04-10T14:09:27.455Z,99590.54
2023-04-10T14:12:18.716Z,99587.49
2023-04-10T14:15:06.822Z,99586.66
2023-04-10T14:17:53.992Z,99584.33
2023-04-10T14:20:41.669Z,99582.63
2023-04-10T14:23:28.800Z,99580.84
2023-04-10T14:26:16.165Z,99581.08
2023-04-10T14:29:03.426Z,99578.77
2023-04-10T14:31:57.619Z,99579.77
2023-04-10T14:34:45.443Z,99579.92
2023-04-10T14:37:32.808Z,99576.27
2023-04-10T14:40:20.192Z,99571.61
2023-04-10T14:43:07.847Z,99572.96
2023-04-10T14:45:54.978Z,99570.00
2023-04-10T14:48:42.447Z,99565.61
2023-04-10T14:51:29.629Z,99566.09
2023-04-10T14:54:21.281Z,99555.69
2023-04-10T14:57:09.145Z,99554.55
2023-04-10T14:59:56.795Z,99552.39
2023-04-10T15:02:44.812Z,99548.24
2023-04-10T15:05:32.528Z,99547.67
2023-04-10T15:08:19.678Z,99543.35
2023-04-10T15:11:07.356Z,99540.78
2023-04-10T15:13:54.796Z,99540.91
2023-04-10T15:16:42.597Z,99538.84
2023-04-10T15:19:29.875Z,99537.71
2023-04-10T15:22:17.388Z,99541.34
2023-04-10T15:25:04.930Z,99537.54
2023-04-10T15:27:55.134Z,99531.61
2023-04-10T15:30:45.374Z,99530.46
2023-04-10T15:33:35.280Z,99528.59
2023-04-10T15:36:22.374Z,99527.88
2023-04-10T15:39:10.570Z,99528.48
2023-04-10T15:41:59.542Z,99521.20
2023-04-10T15:44:48.914Z,99522.05
2023-04-10T15:47:36.592Z,99524.70
2023-04-10T15:50:24.713Z,99522.13
2023-04-10T15:53:11.791Z,99522.63
2023-04-10T15:55:59.329Z,99527.12
2023-04-10T15:58:46.437Z,99526.06
2023-04-10T16:01:34.139Z,99524.56
2023-04-10T16:04:21.412Z,99519.13
2023-04-10T16:07:09.231Z,99515.15
2023-04-10T16:09:57.651Z,99513.86
2023-04-10T16:12:45.307Z,99509.30
2023-04-10T16:15:37.148Z,99508.52
2023-04-10T16:18:25.047Z,99509.30
2023-04-10T16:21:15.778Z,99503.31
2023-04-10T16:24:03.857Z,99498.45
2023-04-10T16:26:53.406Z,99499.64
2023-04-10T16:29:41.421Z,99492.91
2023-04-10T16:32:36.050Z,99493.38
2023-04-10T16:35:23.920Z,99492.34
2023-04-10T16:38:11.087Z,99495.15
2023-04-10T16:41:01.529Z,99494.06
2023-04-10T16:43:48.701Z,99491.10
2023-04-10T16:46:36.378Z,99488.52
2023-04-10T16:49:23.977Z,99482.35
2023-04-10T16:52:12.256Z,99482.20
2023-04-10T16:54:59.478Z,99478.69
2023-04-10T16:57:46.980Z,99485.38
2023-04-10T17:00:34.158Z,99484.77
2023-04-10T17:03:21.850Z,99482.48
2023-04-10T17:06:09.110Z,99479.94
2023-04-10T17:08:56.997Z,99485.13
2023-04-10T17:11:44.644Z,99489.56
2023-04-10T17:14:32.028Z,99487.30
2023-04-10T17:17:19.196Z,99491.15
2023-04-10T17:20:09.142Z,99489.25
2023-04-10T17:22:56.264Z,99492.80
2023-04-10T17:25:44.932Z,99493.16
2023-04-10T17:28:33.734Z,99489.30
2023-04-10T17:31:21.418Z,99491.84
2023-04-10T17:34:08.582Z,99494.05
2023-04-10T17:36:56.220Z,99492.52
2023-04-10T17:39:43.467Z,99496.34
2023-04-10T17:42:31.058Z,99491.65
2023-04-10T17:45:18.327Z,99491.15
2023-04-10T17:48:06.787Z,99494.12
2023-04-10T17:50:54.218Z,99490.66
2023-04-10T17:53:41.942Z,99492.34
2023-04-10T17:56:29.206Z,99494.45
2023-04-10T17:59:16.931Z,99488.70
2023-04-10T18:02:04.307Z,99490.52
2023-04-10T18:04:51.941Z,99493.73
2023-04-10T18:07:39.353Z,99498.84
2023-04-10T18:10:27.019Z,99495.64
2023-04-10T18:13:14.313Z,99497.63
2023-04-10T18:16:01.897Z,99497.59
2023-04-10T18:18:49.192Z,99496.16
2023-04-10T18:21:36.695Z,99495.86
2023-04-10T18:24:23.908Z,99494.74
2023-04-10T18:27:12.164Z,99495.98
2023-04-10T18:29:59.647Z,99492.77
2023-04-10T18:32:51.513Z,99492.52
2023-04-10T18:35:38.938Z,99493.82
2023-04-10T18:38:27.068Z,99496.17
2023-04-10T18:41:14.329Z,99499.97
2023-04-10T18:44:05.297Z,99500.36
2023-04-10T18:47:01.228Z,99494.23
2023-04-10T18:49:51.468Z,99491.05
2023-04-10T18:52:38.701Z,99487.84
2023-04-10T18:55:26.131Z,99485.19
2023-04-10T18:58:13.350Z,99486.50
2023-04-10T19:01:01.288Z,99482.98
2023-04-10T19:03:50.765Z,99483.25
2023-04-10T19:06:42.143Z,99478.86
2023-04-10T19:09:29.616Z,99479.74
2023-04-10T19:12:17.104Z,99480.24
2023-04-10T19:15:07.363Z,99477.73
2023-04-10T19:17:55.115Z,99477.88
2023-04-10T19:20:51.004Z,99479.23
2023-04-10T19:23:40.668Z,99477.27
2023-04-10T19:26:27.912Z,99476.63
2023-04-10T19:29:15.613Z,99474.17
2023-04-10T19:32:03.656Z,99468.30
2023-04-10T19:34:52.774Z,99464.88
2023-04-10T19:37:40.056Z,99461.87
2023-04-10T19:40:30.042Z,99463.60
2023-04-10T19:43:17.679Z,99465.34
2023-04-10T19:46:05.962Z,99461.80
2023-04-10T19:48:54.026Z,99460.40
2023-04-10T19:51:41.708Z,99463.21
2023-04-10T19:54:29.286Z,99457.29
2023-04-10T19:57:16.803Z,99457.50
2023-04-10T20:00:06.262Z,99459.25
2023-04-10T20:02:59.888Z,99452.98
2023-04-10T20:05:47.636Z,99448.08
2023-04-10T20:08:36.070Z,99444.93
2023-04-10T20:11:29.751Z,99445.48
2023-04-10T20:14:17.235Z,99442.43
2023-04-10T20:17:04.667Z,99435.67
2023-04-10T20:19:52.252Z,99420.52
2023-04-10T20:22:39.509Z,99416.17
2023-04-10T20:25:27.072Z,99417.20
2023-04-10T20:28:15.756Z,99416.83
2023-04-10T20:31:03.788Z,99412.60
2023-04-10T20:33:53.112Z,99413.02
2023-04-10T20:36:40.859Z,99417.55
2023-04-10T20:39:28.135Z,99419.92
2023-04-10T20:42:16.674Z,99416.25
2023-04-10T20:45:04.220Z,99419.43
2023-04-10T20:47:51.954Z,99414.90
2023-04-10T20:50:45.337Z,99409.01
2023-04-10T20:53:36.304Z,99409.63
2023-04-10T20:56:29.814Z,99402.70
2023-04-10T20:59:24.041Z,99402.08
2023-04-10T21:02:12.602Z,99399.63
2023-04-10T21:05:00.553Z,99400.11
2023-04-10T21:07:47.777Z,99394.23
2023-04-10T21:10:38.655Z,99396.54
2023-04-10T21:13:25.972Z,99390.56
2023-04-10T21:16:13.924Z,99390.65
2023-04-10T21:19:01.226Z,99387.52
2023-04-10T21:21:48.800Z,99383.98
2023-04-10T21:24:36.353Z,99376.39
2023-04-10T21:27:23.933Z,99377.23
2023-04-10T21:30:11.266Z,99374.83
2023-04-10T21:32:58.972Z,99374.20
2023-04-10T21:35:46.225Z,99368.94
2023-04-10T21:38:34.873Z,99369.54
2023-04-10T21:41:22.086Z,99362.63
2023-04-10T21:44:09.657Z,99357.47
2023-04-10T21:46:56.794Z,99354.40
2023-04-10T21:49:44.372Z,99357.02
2023-04-10T21:52:31.514Z,99355.45
2023-04-10T21:55:19.433Z,99353.30
2023-04-10T21:58:06.751Z,99345.73
2023-04-10T22:00:54.538Z,99344.85
2023-04-10T22:03:41.885Z,99340.94
2023-04-10T22:06:29.374Z,99333.52
2023-04-10T22:09:17.176Z,99328.83
2023-04-10T22:12:04.837Z,99329.34
2023-04-10T22:14:52.014Z,99323.48
2023-04-10T22:17:39.773Z,99320.94
2023-04-10T22:20:26.960Z,99322.11
2023-04-10T22:23:14.536Z,99321.59
2023-04-10T22:26:01.749Z,99318.54
2023-04-10T22:28:49.176Z,99316.27
2023-04-10T22:31:36.432Z,99312.57
2023-04-10T22:34:24.028Z,99311.71
2023-04-10T22:37:11.263Z,99303.95
2023-04-10T22:40:00.239Z,99299.34
2023-04-10T22:42:48.022Z,99299.52
2023-04-10T22:45:35.437Z,99298.74
2023-04-10T22:48:22.776Z,99293.94
2023-04-10T22:51:11.312Z,99287.87
2023-04-10T22:53:58.465Z,99283.39
2023-04-10T22:56:48.339Z,99279.55
2023-04-10T22:59:36.514Z,99273.93
2023-04-10T23:02:24.390Z,99268.95
2023-04-10T23:05:11.640Z,99266.52
2023-04-10T23:07:59.435Z,99260.42
2023-04-10T23:10:46.666Z,99260.34
2023-04-10T23:13:34.156Z,99257.88
2023-04-10T23:16:21.374Z,99253.33
2023-04-10T23:19:08.991Z,99250.87
2023-04-10T23:21:56.574Z,99245.05
2023-04-10T23:24:45.360Z,99240.33
2023-04-10T23:27:32.918Z,99234.52
2023-04-10T23:30:20.659Z,99228.66
2023-04-10T23:33:07.866Z,99224.44
2023-04-10T23:35:55.530Z,99224.10
2023-04-10T23:38:42.664Z,99214.70
2023-04-10T23:41:30.180Z,99213.40
2023-04-10T23:44:17.354Z,99209.08
2023-04-10T23:47:05.972Z,99205.31
2023-04-10T23:49:54.196Z,99202.44
2023-04-10T23:52:41.878Z,99199.55
2023-04-10T23:55:29.135Z,99199.49
2023-04-10T23:58:16.919Z,99190.64
